Terminal Aerodrome Forecast
Issued by NWS

Home | Current Version | Previous Version | Text Only | Print | Product List | Glossary On
Versions: 1 2 3 4 5 6 7 8 9 10 11 12 13 14 15 16 17 18 19 20 21 22 23 24 25 26 27 28
000
FTUS46 KMTR 231100
TAFSFO
TAF
KSFO 231135Z 2312/2418 25010KT P6SM FEW006 OVC008
     FM231600 25011KT P6SM BKN016 BKN022
     FM232200 26017G22KT P6SM SCT020 BKN030
     FM240400 26012KT P6SM FEW010 BKN015
     FM241000 26008KT P6SM OVC009=

USA.gov is the U.S. government's official web portal to all federal, state and local government web resources and services.